sensor_id;sensor_type;location;lat;lon;timestamp;temperature;humidity
490;DHT22;231;48.120;11.576;2024-01-16T00:00:33;-1.50;99.90
490;DHT22;231;48.120;11.576;2024-01-16T00:03:00;-1.50;99.90
490;DHT22;231;48.120;11.576;2024-01-16T00:05:27;-1.50;99.90
490;DHT22;231;48.120;11.576;2024-01-16T00:07:54;-1.50;99.90
490;DHT22;231;48.120;11.576;2024-01-16T00:10:22;-1.50;99.90
490;DHT22;231;48.120;11.576;2024-01-16T00:12:49;-1.50;99.90
490;DHT22;231;48.120;11.576;2024-01-16T00:15:16;-1.50;99.90
490;DHT22;231;48.120;11.576;2024-01-16T00:17:42;-1.50;99.90
490;DHT22;231;48.120;11.576;2024-01-16T00:20:10;-1.50;99.90
490;DHT22;231;48.120;11.576;2024-01-16T00:22:37;-1.50;99.90
490;DHT22;231;48.120;11.576;2024-01-16T00:25:05;-1.50;99.90
490;DHT22;231;48.120;11.576;2024-01-16T00:27:33;-1.50;99.90
490;DHT22;231;48.120;11.576;2024-01-16T00:30:00;-1.50;99.90
490;DHT22;231;48.120;11.576;2024-01-16T00:32:27;-1.50;99.90
490;DHT22;231;48.120;11.576;2024-01-16T00:34:53;-1.50;99.90
490;DHT22;231;48.120;11.576;2024-01-16T00:37:20;-1.50;99.90
490;DHT22;231;48.120;11.576;2024-01-16T00:39:47;-1.60;99.90
490;DHT22;231;48.120;11.576;2024-01-16T00:42:14;-1.60;99.90
490;DHT22;231;48.120;11.576;2024-01-16T00:44:42;-1.70;99.90
490;DHT22;231;48.120;11.576;2024-01-16T00:47:09;-1.70;99.90
490;DHT22;231;48.120;11.576;2024-01-16T00:49:35;-1.70;99.90
490;DHT22;231;48.120;11.576;2024-01-16T00:52:03;-1.60;99.90
490;DHT22;231;48.120;11.576;2024-01-16T00:54:30;-1.70;99.90
490;DHT22;231;48.120;11.576;2024-01-16T00:56:57;-1.70;99.90
490;DHT22;231;48.120;11.576;2024-01-16T00:59:25;-1.70;99.90
490;DHT22;231;48.120;11.576;2024-01-16T01:01:53;-1.70;99.90
490;DHT22;231;48.120;11.576;2024-01-16T01:04:20;-1.70;99.90
490;DHT22;231;48.120;11.576;2024-01-16T01:06:47;-1.70;99.90
490;DHT22;231;48.120;11.576;2024-01-16T01:09:13;-1.70;99.90
490;DHT22;231;48.120;11.576;2024-01-16T01:11:40;-1.70;99.90
490;DHT22;231;48.120;11.576;2024-01-16T01:14:07;-1.80;99.90
490;DHT22;231;48.120;11.576;2024-01-16T01:16:34;-1.90;99.90
490;DHT22;231;48.120;11.576;2024-01-16T01:19:02;-2.00;99.90
490;DHT22;231;48.120;11.576;2024-01-16T01:21:30;-2.10;99.90
490;DHT22;231;48.120;11.576;2024-01-16T01:23:56;-2.20;99.90
490;DHT22;231;48.120;11.576;2024-01-16T01:26:23;-2.20;99.90
490;DHT22;231;48.120;11.576;2024-01-16T01:28:50;-2.30;99.90
490;DHT22;231;48.120;11.576;2024-01-16T01:31:18;-2.40;99.90
490;DHT22;231;48.120;11.576;2024-01-16T01:33:44;-2.40;99.90
490;DHT22;231;48.120;11.576;2024-01-16T01:36:13;-2.50;99.90
490;DHT22;231;48.120;11.576;2024-01-16T01:38:39;-2.50;99.90
490;DHT22;231;48.120;11.576;2024-01-16T01:41:06;-2.50;99.90
490;DHT22;231;48.120;11.576;2024-01-16T01:43:33;-2.50;99.90
490;DHT22;231;48.120;11.576;2024-01-16T01:46:11;-2.50;99.90
490;DHT22;231;48.120;11.576;2024-01-16T01:48:40;-2.50;99.90
490;DHT22;231;48.120;11.576;2024-01-16T01:51:08;-2.50;99.90
490;DHT22;231;48.120;11.576;2024-01-16T01:53:37;-2.40;99.90
490;DHT22;231;48.120;11.576;2024-01-16T01:56:07;-2.30;99.90
490;DHT22;231;48.120;11.576;2024-01-16T01:58:34;-2.30;99.90
490;DHT22;231;48.120;11.576;2024-01-16T02:01:04;-2.30;99.90
490;DHT22;231;48.120;11.576;2024-01-16T02:03:35;-2.30;99.90
490;DHT22;231;48.120;11.576;2024-01-16T02:06:06;-2.20;99.90
490;DHT22;231;48.120;11.576;2024-01-16T02:08:35;-2.20;99.90
490;DHT22;231;48.120;11.576;2024-01-16T02:11:02;-2.20;99.90
490;DHT22;231;48.120;11.576;2024-01-16T02:13:29;-2.10;99.90
490;DHT22;231;48.120;11.576;2024-01-16T02:15:56;-2.10;99.90
490;DHT22;231;48.120;11.576;2024-01-16T02:18:23;-2.10;99.90
490;DHT22;231;48.120;11.576;2024-01-16T02:20:50;-2.00;99.90
490;DHT22;231;48.120;11.576;2024-01-16T02:23:21;-2.00;99.90
490;DHT22;231;48.120;11.576;2024-01-16T02:25:51;-2.00;99.90
490;DHT22;231;48.120;11.576;2024-01-16T02:28:18;-2.00;99.90
490;DHT22;231;48.120;11.576;2024-01-16T02:30:45;-2.10;99.90
490;DHT22;231;48.120;11.576;2024-01-16T02:33:12;-2.10;99.90
490;DHT22;231;48.120;11.576;2024-01-16T02:35:39;-2.20;99.90
490;DHT22;231;48.120;11.576;2024-01-16T02:38:05;-2.30;99.90
490;DHT22;231;48.120;11.576;2024-01-16T02:40:34;-2.40;99.90
490;DHT22;231;48.120;11.576;2024-01-16T02:43:01;-2.50;99.90
490;DHT22;231;48.120;11.576;2024-01-16T02:45:27;-2.60;99.90
490;DHT22;231;48.120;11.576;2024-01-16T02:47:54;-2.60;99.90
490;DHT22;231;48.120;11.576;2024-01-16T02:50:21;-2.70;99.90
490;DHT22;231;48.120;11.576;2024-01-16T02:52:48;-2.80;99.90
490;DHT22;231;48.120;11.576;2024-01-16T02:55:15;-2.80;99.90
490;DHT22;231;48.120;11.576;2024-01-16T02:57:43;-2.80;99.90
490;DHT22;231;48.120;11.576;2024-01-16T03:00:11;-2.90;99.90
490;DHT22;231;48.120;11.576;2024-01-16T03:02:39;-2.90;99.90
490;DHT22;231;48.120;11.576;2024-01-16T03:05:06;-3.00;99.90
490;DHT22;231;48.120;11.576;2024-01-16T03:07:34;-3.00;99.90
490;DHT22;231;48.120;11.576;2024-01-16T03:10:01;-3.10;99.90
490;DHT22;231;48.120;11.576;2024-01-16T03:12:28;-3.10;99.90
490;DHT22;231;48.120;11.576;2024-01-16T03:14:56;-3.10;99.90
490;DHT22;231;48.120;11.576;2024-01-16T03:17:23;-3.20;99.90
490;DHT22;231;48.120;11.576;2024-01-16T03:19:50;-3.20;99.90
490;DHT22;231;48.120;11.576;2024-01-16T03:22:17;-3.30;99.90
490;DHT22;231;48.120;11.576;2024-01-16T03:24:44;-3.30;99.90
490;DHT22;231;48.120;11.576;2024-01-16T03:27:11;-3.30;99.90
490;DHT22;231;48.120;11.576;2024-01-16T03:29:38;-3.30;99.90
490;DHT22;231;48.120;11.576;2024-01-16T03:32:07;-3.40;99.90
490;DHT22;231;48.120;11.576;2024-01-16T03:34:33;-3.40;99.90
490;DHT22;231;48.120;11.576;2024-01-16T03:37:00;-3.40;99.90
490;DHT22;231;48.120;11.576;2024-01-16T03:39:27;-3.40;99.90
490;DHT22;231;48.120;11.576;2024-01-16T03:41:54;-3.40;99.90
490;DHT22;231;48.120;11.576;2024-01-16T03:44:21;-3.40;99.90
490;DHT22;231;48.120;11.576;2024-01-16T03:46:47;-3.50;99.90
490;DHT22;231;48.120;11.576;2024-01-16T03:49:16;-3.50;99.90
490;DHT22;231;48.120;11.576;2024-01-16T03:51:42;-3.50;99.90
490;DHT22;231;48.120;11.576;2024-01-16T03:54:11;-3.40;99.90
490;DHT22;231;48.120;11.576;2024-01-16T03:56:38;-3.40;99.90
490;DHT22;231;48.120;11.576;2024-01-16T03:59:11;-3.40;99.90
490;DHT22;231;48.120;11.576;2024-01-16T04:01:38;-3.40;99.90
490;DHT22;231;48.120;11.576;2024-01-16T04:04:06;-3.30;99.90
490;DHT22;231;48.120;11.576;2024-01-16T04:06:34;-3.30;99.90
490;DHT22;231;48.120;11.576;2024-01-16T04:09:01;-3.20;99.90
490;DHT22;231;48.120;11.576;2024-01-16T04:11:30;-3.20;99.90
490;DHT22;231;48.120;11.576;2024-01-16T04:13:57;-3.10;99.90
490;DHT22;231;48.120;11.576;2024-01-16T04:16:23;-3.10;99.90
490;DHT22;231;48.120;11.576;2024-01-16T04:18:50;-3.10;99.90
490;DHT22;231;48.120;11.576;2024-01-16T04:21:17;-3.00;99.90
490;DHT22;231;48.120;11.576;2024-01-16T04:23:45;-3.10;99.90
490;DHT22;231;48.120;11.576;2024-01-16T04:26:13;-3.00;99.90
490;DHT22;231;48.120;11.576;2024-01-16T04:28:40;-3.00;99.90
490;DHT22;231;48.120;11.576;2024-01-16T04:31:08;-3.00;99.90
490;DHT22;231;48.120;11.576;2024-01-16T04:33:37;-3.10;99.90
490;DHT22;231;48.120;11.576;2024-01-16T04:36:04;-3.10;99.90
490;DHT22;231;48.120;11.576;2024-01-16T04:38:31;-3.10;99.90
490;DHT22;231;48.120;11.576;2024-01-16T04:41:01;-3.10;99.90
490;DHT22;231;48.120;11.576;2024-01-16T04:43:28;-3.10;99.90
490;DHT22;231;48.120;11.576;2024-01-16T04:45:55;-3.20;99.90
490;DHT22;231;48.120;11.576;2024-01-16T04:48:22;-3.20;99.90
490;DHT22;231;48.120;11.576;2024-01-16T04:50:48;-3.20;99.90
490;DHT22;231;48.120;11.576;2024-01-16T04:53:16;-3.30;99.90
490;DHT22;231;48.120;11.576;2024-01-16T04:55:42;-3.30;99.90
490;DHT22;231;48.120;11.576;2024-01-16T04:58:11;-3.30;99.90
490;DHT22;231;48.120;11.576;2024-01-16T05:00:38;-3.30;99.90
490;DHT22;231;48.120;11.576;2024-01-16T05:03:05;-3.40;99.90
490;DHT22;231;48.120;11.576;2024-01-16T05:05:32;-3.40;99.90
490;DHT22;231;48.120;11.576;2024-01-16T05:08:00;-3.40;99.90
490;DHT22;231;48.120;11.576;2024-01-16T05:10:29;-3.50;99.90
490;DHT22;231;48.120;11.576;2024-01-16T05:12:57;-3.40;99.80
490;DHT22;231;48.120;11.576;2024-01-16T05:15:25;-3.50;99.70
490;DHT22;231;48.120;11.576;2024-01-16T05:17:52;-3.50;99.40
490;DHT22;231;48.120;11.576;2024-01-16T05:20:20;-3.60;98.70
490;DHT22;231;48.120;11.576;2024-01-16T05:22:47;-3.60;98.70
490;DHT22;231;48.120;11.576;2024-01-16T05:25:14;-3.60;98.10
490;DHT22;231;48.120;11.576;2024-01-16T05:27:42;-3.70;97.90
490;DHT22;231;48.120;11.576;2024-01-16T05:30:10;-3.70;97.60
490;DHT22;231;48.120;11.576;2024-01-16T05:32:40;-3.70;97.40
490;DHT22;231;48.120;11.576;2024-01-16T05:35:21;-3.80;97.60
490;DHT22;231;48.120;11.576;2024-01-16T05:37:48;-3.90;97.30
490;DHT22;231;48.120;11.576;2024-01-16T05:40:15;-3.80;97.20
490;DHT22;231;48.120;11.576;2024-01-16T05:42:45;-3.90;97.30
490;DHT22;231;48.120;11.576;2024-01-16T05:45:12;-3.90;97.30
490;DHT22;231;48.120;11.576;2024-01-16T05:47:40;-3.80;97.10
490;DHT22;231;48.120;11.576;2024-01-16T05:50:07;-4.00;96.80
490;DHT22;231;48.120;11.576;2024-01-16T05:52:35;-4.00;96.50
490;DHT22;231;48.120;11.576;2024-01-16T05:55:02;-4.00;96.50
490;DHT22;231;48.120;11.576;2024-01-16T05:57:29;-4.00;96.50
490;DHT22;231;48.120;11.576;2024-01-16T05:59:59;-4.10;96.50
490;DHT22;231;48.120;11.576;2024-01-16T06:02:29;-4.10;96.40
490;DHT22;231;48.120;11.576;2024-01-16T06:04:57;-4.20;96.00
490;DHT22;231;48.120;11.576;2024-01-16T06:07:24;-4.10;95.90
490;DHT22;231;48.120;11.576;2024-01-16T06:09:51;-4.10;96.20
490;DHT22;231;48.120;11.576;2024-01-16T06:12:18;-4.10;96.40
490;DHT22;231;48.120;11.576;2024-01-16T06:14:45;-4.10;96.80
490;DHT22;231;48.120;11.576;2024-01-16T06:17:12;-4.10;97.30
490;DHT22;231;48.120;11.576;2024-01-16T06:19:39;-4.10;97.60
490;DHT22;231;48.120;11.576;2024-01-16T06:25:05;-4.10;98.20
490;DHT22;231;48.120;11.576;2024-01-16T06:27:32;-4.10;98.50
490;DHT22;231;48.120;11.576;2024-01-16T06:29:59;-4.10;98.90
490;DHT22;231;48.120;11.576;2024-01-16T06:32:26;-4.10;98.70
490;DHT22;231;48.120;11.576;2024-01-16T06:34:53;-4.10;98.70
490;DHT22;231;48.120;11.576;2024-01-16T06:37:20;-4.10;98.70
490;DHT22;231;48.120;11.576;2024-01-16T06:39:48;-4.10;99.00
490;DHT22;231;48.120;11.576;2024-01-16T06:42:20;-3.90;99.00
490;DHT22;231;48.120;11.576;2024-01-16T06:44:49;-4.00;99.10
490;DHT22;231;48.120;11.576;2024-01-16T06:47:16;-4.00;99.30
490;DHT22;231;48.120;11.576;2024-01-16T06:49:43;-3.30;99.60
490;DHT22;231;48.120;11.576;2024-01-16T06:52:10;-4.00;99.50
490;DHT22;231;48.120;11.576;2024-01-16T07:07:20;-3.90;99.90
490;DHT22;231;48.120;11.576;2024-01-16T07:09:47;-3.90;99.90
490;DHT22;231;48.120;11.576;2024-01-16T07:12:14;-3.90;99.90
490;DHT22;231;48.120;11.576;2024-01-16T07:14:41;-3.80;99.90
490;DHT22;231;48.120;11.576;2024-01-16T07:17:08;-3.80;99.90
490;DHT22;231;48.120;11.576;2024-01-16T07:19:38;-3.80;99.90
490;DHT22;231;48.120;11.576;2024-01-16T07:22:05;-3.70;99.90
490;DHT22;231;48.120;11.576;2024-01-16T07:24:35;-2.90;99.90
490;DHT22;231;48.120;11.576;2024-01-16T07:27:04;-3.70;99.90
490;DHT22;231;48.120;11.576;2024-01-16T07:29:31;-3.70;99.90
490;DHT22;231;48.120;11.576;2024-01-16T07:31:59;-3.50;99.90
490;DHT22;231;48.120;11.576;2024-01-16T07:34:26;-3.50;99.90
490;DHT22;231;48.120;11.576;2024-01-16T07:36:53;-3.40;99.90
490;DHT22;231;48.120;11.576;2024-01-16T07:39:20;-3.30;99.90
490;DHT22;231;48.120;11.576;2024-01-16T07:41:50;-3.10;99.90
490;DHT22;231;48.120;11.576;2024-01-16T07:44:17;-3.20;99.90
490;DHT22;231;48.120;11.576;2024-01-16T07:46:44;-3.10;99.90
490;DHT22;231;48.120;11.576;2024-01-16T07:49:11;-3.10;99.90
490;DHT22;231;48.120;11.576;2024-01-16T07:51:38;-3.20;99.90
490;DHT22;231;48.120;11.576;2024-01-16T07:54:06;-3.00;99.90
490;DHT22;231;48.120;11.576;2024-01-16T07:56:34;-2.90;99.90
490;DHT22;231;48.120;11.576;2024-01-16T07:59:02;-2.80;99.90
490;DHT22;231;48.120;11.576;2024-01-16T08:01:30;-2.80;99.90
490;DHT22;231;48.120;11.576;2024-01-16T08:04:18;-2.70;99.90
490;DHT22;231;48.120;11.576;2024-01-16T08:06:56;-2.50;99.90
490;DHT22;231;48.120;11.576;2024-01-16T08:09:23;-2.40;99.90
490;DHT22;231;48.120;11.576;2024-01-16T08:11:50;-2.40;99.90
490;DHT22;231;48.120;11.576;2024-01-16T08:14:19;-2.40;99.90
490;DHT22;231;48.120;11.576;2024-01-16T08:16:46;-2.30;99.90
490;DHT22;231;48.120;11.576;2024-01-16T08:19:15;-2.20;99.90
490;DHT22;231;48.120;11.576;2024-01-16T08:21:48;-2.20;99.90
490;DHT22;231;48.120;11.576;2024-01-16T08:24:14;-2.10;99.90
490;DHT22;231;48.120;11.576;2024-01-16T08:26:41;-2.00;99.90
490;DHT22;231;48.120;11.576;2024-01-16T08:29:09;-1.80;99.90
490;DHT22;231;48.120;11.576;2024-01-16T08:31:37;-1.70;99.90
490;DHT22;231;48.120;11.576;2024-01-16T08:34:04;-1.60;99.90
490;DHT22;231;48.120;11.576;2024-01-16T08:36:31;-1.50;99.90
490;DHT22;231;48.120;11.576;2024-01-16T08:38:58;-1.30;99.90
490;DHT22;231;48.120;11.576;2024-01-16T08:41:26;-1.20;99.90
490;DHT22;231;48.120;11.576;2024-01-16T08:44:14;-1.10;99.90
490;DHT22;231;48.120;11.576;2024-01-16T08:47:37;-1.00;99.90
490;DHT22;231;48.120;11.576;2024-01-16T09:04:37;-0.10;99.90
490;DHT22;231;48.120;11.576;2024-01-16T09:07:04;0.10;99.90
490;DHT22;231;48.120;11.576;2024-01-16T09:09:31;0.30;99.90
490;DHT22;231;48.120;11.576;2024-01-16T09:11:58;0.40;99.90
490;DHT22;231;48.120;11.576;2024-01-16T09:14:25;0.60;99.90
490;DHT22;231;48.120;11.576;2024-01-16T09:16:52;0.70;99.90
490;DHT22;231;48.120;11.576;2024-01-16T09:22:45;0.90;99.90
490;DHT22;231;48.120;11.576;2024-01-16T09:28:17;1.40;99.90
490;DHT22;231;48.120;11.576;2024-01-16T09:31:24;1.90;99.90
490;DHT22;231;48.120;11.576;2024-01-16T09:34:08;2.50;99.90
490;DHT22;231;48.120;11.576;2024-01-16T09:36:47;2.90;99.90
490;DHT22;231;48.120;11.576;2024-01-16T09:39:26;3.10;99.90
490;DHT22;231;48.120;11.576;2024-01-16T09:41:57;3.20;99.90
490;DHT22;231;48.120;11.576;2024-01-16T09:44:25;3.40;99.90
490;DHT22;231;48.120;11.576;2024-01-16T09:46:53;3.50;99.90
490;DHT22;231;48.120;11.576;2024-01-16T09:49:21;3.60;99.90
490;DHT22;231;48.120;11.576;2024-01-16T09:51:49;3.60;99.90
490;DHT22;231;48.120;11.576;2024-01-16T09:54:16;3.60;99.90
490;DHT22;231;48.120;11.576;2024-01-16T09:56:44;3.50;99.90
490;DHT22;231;48.120;11.576;2024-01-16T09:59:17;3.40;99.90
490;DHT22;231;48.120;11.576;2024-01-16T10:01:45;3.20;99.90
490;DHT22;231;48.120;11.576;2024-01-16T10:04:12;3.00;99.90
490;DHT22;231;48.120;11.576;2024-01-16T10:06:39;2.80;99.90
490;DHT22;231;48.120;11.576;2024-01-16T10:09:06;2.70;99.90
490;DHT22;231;48.120;11.576;2024-01-16T10:11:34;2.70;99.90
490;DHT22;231;48.120;11.576;2024-01-16T10:14:03;2.60;99.90
490;DHT22;231;48.120;11.576;2024-01-16T10:16:58;2.40;99.90
490;DHT22;231;48.120;11.576;2024-01-16T10:19:28;2.30;99.90
490;DHT22;231;48.120;11.576;2024-01-16T10:22:01;2.30;99.90
490;DHT22;231;48.120;11.576;2024-01-16T10:24:28;2.40;99.90
490;DHT22;231;48.120;11.576;2024-01-16T10:26:58;2.30;99.90
490;DHT22;231;48.120;11.576;2024-01-16T10:29:27;2.30;99.90
490;DHT22;231;48.120;11.576;2024-01-16T10:31:54;2.30;99.90
490;DHT22;231;48.120;11.576;2024-01-16T10:34:21;2.30;99.90
490;DHT22;231;48.120;11.576;2024-01-16T10:36:50;2.20;99.90
490;DHT22;231;48.120;11.576;2024-01-16T10:39:17;2.20;99.90
490;DHT22;231;48.120;11.576;2024-01-16T10:41:54;2.30;99.90
490;DHT22;231;48.120;11.576;2024-01-16T10:44:21;2.30;99.90
490;DHT22;231;48.120;11.576;2024-01-16T10:46:50;2.30;99.90
490;DHT22;231;48.120;11.576;2024-01-16T10:49:17;2.40;99.90
490;DHT22;231;48.120;11.576;2024-01-16T10:51:44;2.40;99.90
490;DHT22;231;48.120;11.576;2024-01-16T10:54:14;2.30;99.90
490;DHT22;231;48.120;11.576;2024-01-16T10:56:44;2.20;99.90
490;DHT22;231;48.120;11.576;2024-01-16T10:59:16;2.30;99.90
490;DHT22;231;48.120;11.576;2024-01-16T11:01:49;2.30;99.90
490;DHT22;231;48.120;11.576;2024-01-16T11:04:18;2.30;99.90
490;DHT22;231;48.120;11.576;2024-01-16T11:06:47;2.30;99.90
490;DHT22;231;48.120;11.576;2024-01-16T11:09:14;2.50;99.90
490;DHT22;231;48.120;11.576;2024-01-16T11:11:43;2.60;99.90
490;DHT22;231;48.120;11.576;2024-01-16T11:14:11;2.70;99.90
490;DHT22;231;48.120;11.576;2024-01-16T11:16:39;2.80;99.90
490;DHT22;231;48.120;11.576;2024-01-16T11:19:08;2.80;99.90
490;DHT22;231;48.120;11.576;2024-01-16T11:21:36;2.70;99.90
490;DHT22;231;48.120;11.576;2024-01-16T11:24:05;2.70;99.90
490;DHT22;231;48.120;11.576;2024-01-16T11:26:33;2.70;99.90
490;DHT22;231;48.120;11.576;2024-01-16T11:29:36;2.70;99.90
490;DHT22;231;48.120;11.576;2024-01-16T11:32:04;2.70;99.90
490;DHT22;231;48.120;11.576;2024-01-16T11:34:53;2.70;99.90
490;DHT22;231;48.120;11.576;2024-01-16T11:37:30;2.70;99.90
490;DHT22;231;48.120;11.576;2024-01-16T11:40:34;2.60;99.90
490;DHT22;231;48.120;11.576;2024-01-16T11:43:35;2.60;99.90
490;DHT22;231;48.120;11.576;2024-01-16T11:46:04;2.60;99.90
490;DHT22;231;48.120;11.576;2024-01-16T11:48:30;2.60;99.90
490;DHT22;231;48.120;11.576;2024-01-16T11:50:57;2.60;99.90
490;DHT22;231;48.120;11.576;2024-01-16T11:53:38;2.70;99.90
490;DHT22;231;48.120;11.576;2024-01-16T11:56:38;2.70;99.90
490;DHT22;231;48.120;11.576;2024-01-16T11:59:27;2.70;99.90
490;DHT22;231;48.120;11.576;2024-01-16T12:02:00;2.70;99.90
490;DHT22;231;48.120;11.576;2024-01-16T12:04:28;2.80;99.90
490;DHT22;231;48.120;11.576;2024-01-16T12:06:58;2.80;99.90
490;DHT22;231;48.120;11.576;2024-01-16T12:09:27;2.70;99.90
490;DHT22;231;48.120;11.576;2024-01-16T12:11:59;2.60;99.90
490;DHT22;231;48.120;11.576;2024-01-16T12:14:26;2.60;99.90
490;DHT22;231;48.120;11.576;2024-01-16T12:17:08;2.60;99.90
490;DHT22;231;48.120;11.576;2024-01-16T12:19:36;2.60;99.90
490;DHT22;231;48.120;11.576;2024-01-16T12:22:08;2.60;99.90
490;DHT22;231;48.120;11.576;2024-01-16T12:24:36;2.50;99.90
490;DHT22;231;48.120;11.576;2024-01-16T12:27:04;2.60;99.90
490;DHT22;231;48.120;11.576;2024-01-16T12:29:31;2.70;99.90
490;DHT22;231;48.120;11.576;2024-01-16T12:32:07;2.70;99.90
490;DHT22;231;48.120;11.576;2024-01-16T12:34:41;2.60;99.90
490;DHT22;231;48.120;11.576;2024-01-16T12:37:10;2.70;99.90
490;DHT22;231;48.120;11.576;2024-01-16T12:39:39;2.80;99.90
490;DHT22;231;48.120;11.576;2024-01-16T12:42:07;2.80;99.90
490;DHT22;231;48.120;11.576;2024-01-16T12:44:37;2.70;99.90
490;DHT22;231;48.120;11.576;2024-01-16T12:47:04;2.70;99.90
490;DHT22;231;48.120;11.576;2024-01-16T12:49:31;2.70;99.90
490;DHT22;231;48.120;11.576;2024-01-16T12:52:15;2.80;99.90
490;DHT22;231;48.120;11.576;2024-01-16T12:54:44;2.90;99.90
490;DHT22;231;48.120;11.576;2024-01-16T12:57:17;3.00;99.90
490;DHT22;231;48.120;11.576;2024-01-16T12:59:45;2.90;99.90
490;DHT22;231;48.120;11.576;2024-01-16T13:02:20;3.00;99.90
490;DHT22;231;48.120;11.576;2024-01-16T13:04:47;3.00;99.90
490;DHT22;231;48.120;11.576;2024-01-16T13:07:16;2.90;99.90
490;DHT22;231;48.120;11.576;2024-01-16T13:09:45;2.90;99.90
490;DHT22;231;48.120;11.576;2024-01-16T13:12:19;3.00;99.90
490;DHT22;231;48.120;11.576;2024-01-16T13:14:46;3.00;99.90
490;DHT22;231;48.120;11.576;2024-01-16T13:17:13;3.00;99.90
490;DHT22;231;48.120;11.576;2024-01-16T13:19:40;2.90;99.90
490;DHT22;231;48.120;11.576;2024-01-16T13:22:10;2.90;99.90
490;DHT22;231;48.120;11.576;2024-01-16T13:24:37;2.90;99.90
490;DHT22;231;48.120;11.576;2024-01-16T13:27:13;2.90;99.90
490;DHT22;231;48.120;11.576;2024-01-16T13:29:40;2.90;99.90
490;DHT22;231;48.120;11.576;2024-01-16T13:32:09;2.90;99.90
490;DHT22;231;48.120;11.576;2024-01-16T13:34:36;2.80;99.90
490;DHT22;231;48.120;11.576;2024-01-16T13:37:05;2.80;99.90
490;DHT22;231;48.120;11.576;2024-01-16T13:39:34;2.80;99.90
490;DHT22;231;48.120;11.576;2024-01-16T13:42:10;2.70;99.90
490;DHT22;231;48.120;11.576;2024-01-16T13:44:42;2.60;99.90
490;DHT22;231;48.120;11.576;2024-01-16T13:47:09;2.60;99.90
490;DHT22;231;48.120;11.576;2024-01-16T13:49:36;2.60;99.90
490;DHT22;231;48.120;11.576;2024-01-16T13:52:03;2.60;99.90
490;DHT22;231;48.120;11.576;2024-01-16T13:54:30;2.60;99.90
490;DHT22;231;48.120;11.576;2024-01-16T13:56:57;2.40;99.90
490;DHT22;231;48.120;11.576;2024-01-16T13:59:24;2.20;99.90
490;DHT22;231;48.120;11.576;2024-01-16T14:01:54;2.20;99.90
490;DHT22;231;48.120;11.576;2024-01-16T14:04:21;2.20;99.90
490;DHT22;231;48.120;11.576;2024-01-16T14:06:49;2.10;99.90
490;DHT22;231;48.120;11.576;2024-01-16T14:09:16;2.10;99.90
490;DHT22;231;48.120;11.576;2024-01-16T14:11:44;2.10;99.90
490;DHT22;231;48.120;11.576;2024-01-16T14:14:11;2.10;99.90
490;DHT22;231;48.120;11.576;2024-01-16T14:16:38;2.00;99.90
490;DHT22;231;48.120;11.576;2024-01-16T14:19:07;2.10;99.90
490;DHT22;231;48.120;11.576;2024-01-16T14:21:36;2.00;99.90
490;DHT22;231;48.120;11.576;2024-01-16T14:24:07;2.00;99.90
490;DHT22;231;48.120;11.576;2024-01-16T14:26:35;2.00;99.90
490;DHT22;231;48.120;11.576;2024-01-16T14:29:02;2.00;99.90
490;DHT22;231;48.120;11.576;2024-01-16T14:31:30;2.00;99.90
490;DHT22;231;48.120;11.576;2024-01-16T16:21:19;0.40;99.90
490;DHT22;231;48.120;11.576;2024-01-16T17:11:10;-1.40;99.90
490;DHT22;231;48.120;11.576;2024-01-16T20:18:30;-3.90;99.90
490;DHT22;231;48.120;11.576;2024-01-16T20:20:58;-4.00;99.90
490;DHT22;231;48.120;11.576;2024-01-16T20:23:25;-4.00;99.90
490;DHT22;231;48.120;11.576;2024-01-16T20:25:53;-4.00;99.80
490;DHT22;231;48.120;11.576;2024-01-16T20:28:47;-4.10;99.80
490;DHT22;231;48.120;11.576;2024-01-16T20:31:23;-4.10;99.60
490;DHT22;231;48.120;11.576;2024-01-16T20:33:51;-4.10;99.30
490;DHT22;231;48.120;11.576;2024-01-16T20:36:18;-4.10;98.70
490;DHT22;231;48.120;11.576;2024-01-16T20:38:46;-4.10;98.40
490;DHT22;231;48.120;11.576;2024-01-16T20:41:29;-4.20;98.20
490;DHT22;231;48.120;11.576;2024-01-16T20:44:02;-4.20;98.20
490;DHT22;231;48.120;11.576;2024-01-16T20:46:29;-4.20;98.10
490;DHT22;231;48.120;11.576;2024-01-16T20:48:58;-4.30;97.80
490;DHT22;231;48.120;11.576;2024-01-16T20:51:27;-4.30;97.40
490;DHT22;231;48.120;11.576;2024-01-16T20:53:55;-4.30;97.20
490;DHT22;231;48.120;11.576;2024-01-16T20:57:19;-4.30;97.40
490;DHT22;231;48.120;11.576;2024-01-16T21:44:16;-4.40;99.90
490;DHT22;231;48.120;11.576;2024-01-16T21:53:48;-4.50;99.90
490;DHT22;231;48.120;11.576;2024-01-16T21:56:20;-4.50;99.90
490;DHT22;231;48.120;11.576;2024-01-16T22:00:00;-4.50;99.80
490;DHT22;231;48.120;11.576;2024-01-16T23:11:51;-5.00;97.00
490;DHT22;231;48.120;11.576;2024-01-16T23:14:51;-5.00;97.10
490;DHT22;231;48.120;11.576;2024-01-16T23:21:17;-5.10;96.90
490;DHT22;231;48.120;11.576;2024-01-16T23:24:05;-5.10;97.00
490;DHT22;231;48.120;11.576;2024-01-16T23:30:18;-5.10;97.00
490;DHT22;231;48.120;11.576;2024-01-16T23:33:12;-5.10;96.90
490;DHT22;231;48.120;11.576;2024-01-16T23:36:07;-5.10;97.20
490;DHT22;231;48.120;11.576;2024-01-16T23:38:55;-5.10;97.70
490;DHT22;231;48.120;11.576;2024-01-16T23:41:42;-5.10;98.40
490;DHT22;231;48.120;11.576;2024-01-16T23:44:21;-5.10;98.50
490;DHT22;231;48.120;11.576;2024-01-16T23:47:07;-5.10;98.70
490;DHT22;231;48.120;11.576;2024-01-16T23:50:16;-5.10;99.20
490;DHT22;231;48.120;11.576;2024-01-16T23:52:45;-5.10;99.90
490;DHT22;231;48.120;11.576;2024-01-16T23:55:15;-4.90;99.90
490;DHT22;231;48.120;11.576;2024-01-16T23:57:43;-4.90;99.90
